Accueil
METAR-TAF:

METAR-TAF

Aéroports :

Aéroport de Francfort-Hahn

Hahn, Allemagne

latitude: 49-57N, longitude: 007-16E, altitude: 491 m

Observation

Le bulletin a été fait il y a 20 minutes, à 05:50 UTC
Vent 3 kt de nord-est, variant entre nord/nord-est et est
Température -3°C
Humidité 80%
Pression 1020 hPa
Visibilité 10 km ou plus
Quelques nuages à une hauteur de 1000 ft

METAR: EDFH 080550Z 05003KT 020V080 9999 FEW010 M03/M06 Q1020

Heure: 07:10 (06:10 UTC)

Prévision

Le bulletin a été fait il y a 1 heure et 10 minutes, à 05:00 UTC
Prévision valable du 08 à 06 UTC au 09 à 06 UTC
Vent 6 kt de nord-est
Visibilité 10 km ou plus
pas de nuages en-dessous de 1500 mètres et pas de cumulonimbus.
Evoluant progressivement
du 09 à 01 UTC au 09 à 05 UTC
Vent 5 kt de sud-ouest

TAF: EDFH 080500Z 0806/0906 05006KT CAVOK BECMG 0901/0905 22005KT

Observations et prévisions météorologiques de plus de 4000 aéroports (messages METAR et TAF).

Les stations disponibles sont représentées par des disques jaunes et rouges sur la carte.

Passer la souris dessus pour voir le nom de la station.

Cliquer dessus pour voir les observations et prévisions météorologiques.

Pour changer de carte: cliquez sur les boutons verts avec une croix noire pour zoomer, sur le bouton vert avec un tiret pour effectuer un zoom arrière, ou sur les flèches vertes pour les cartes adjacentes.


METAR-TAF: